sensor_id;sensor_type;location;lat;lon;timestamp;P1;durP1;ratioP1;P2;durP2;ratioP2
12024;SDS011;6073;53.230;10.444;2023-09-18T00:02:24;5.45;;;4.57;;
12024;SDS011;6073;53.230;10.444;2023-09-18T00:04:50;4.97;;;4.47;;
12024;SDS011;6073;53.230;10.444;2023-09-18T00:07:17;5.55;;;4.78;;
12024;SDS011;6073;53.230;10.444;2023-09-18T00:09:42;5.45;;;4.95;;
12024;SDS011;6073;53.230;10.444;2023-09-18T00:12:08;5.78;;;4.88;;
12024;SDS011;6073;53.230;10.444;2023-09-18T00:14:34;5.40;;;4.90;;
12024;SDS011;6073;53.230;10.444;2023-09-18T00:17:00;5.57;;;4.85;;
12024;SDS011;6073;53.230;10.444;2023-09-18T00:19:26;5.50;;;5.00;;
12024;SDS011;6073;53.230;10.444;2023-09-18T00:21:52;5.32;;;4.75;;
12024;SDS011;6073;53.230;10.444;2023-09-18T00:24:17;4.95;;;4.55;;
12024;SDS011;6073;53.230;10.444;2023-09-18T00:26:43;5.65;;;4.50;;
12024;SDS011;6073;53.230;10.444;2023-09-18T00:29:08;4.85;;;4.45;;
12024;SDS011;6073;53.230;10.444;2023-09-18T00:31:34;5.60;;;5.05;;
12024;SDS011;6073;53.230;10.444;2023-09-18T00:33:59;5.03;;;4.53;;
12024;SDS011;6073;53.230;10.444;2023-09-18T00:36:25;5.28;;;4.78;;
12024;SDS011;6073;53.230;10.444;2023-09-18T00:38:50;5.45;;;4.95;;
12024;SDS011;6073;53.230;10.444;2023-09-18T00:41:16;5.85;;;5.22;;
12024;SDS011;6073;53.230;10.444;2023-09-18T00:43:41;6.05;;;5.03;;
12024;SDS011;6073;53.230;10.444;2023-09-18T00:46:07;5.75;;;5.18;;
12024;SDS011;6073;53.230;10.444;2023-09-18T00:48:33;5.20;;;4.68;;
12024;SDS011;6073;53.230;10.444;2023-09-18T00:50:58;5.45;;;4.95;;
12024;SDS011;6073;53.230;10.444;2023-09-18T00:53:24;5.53;;;4.85;;
12024;SDS011;6073;53.230;10.444;2023-09-18T00:55:52;5.57;;;5.07;;
12024;SDS011;6073;53.230;10.444;2023-09-18T00:58:20;5.75;;;5.25;;
12024;SDS011;6073;53.230;10.444;2023-09-18T01:00:45;4.95;;;4.55;;
12024;SDS011;6073;53.230;10.444;2023-09-18T01:03:11;6.13;;;5.20;;
12024;SDS011;6073;53.230;10.444;2023-09-18T01:05:37;5.85;;;4.95;;
12024;SDS011;6073;53.230;10.444;2023-09-18T01:08:02;7.65;;;5.10;;
12024;SDS011;6073;53.230;10.444;2023-09-18T01:10:30;5.25;;;4.75;;
12024;SDS011;6073;53.230;10.444;2023-09-18T01:13:20;5.90;;;5.22;;
12024;SDS011;6073;53.230;10.444;2023-09-18T01:16:02;6.20;;;4.97;;
12024;SDS011;6073;53.230;10.444;2023-09-18T01:18:35;5.30;;;4.82;;
12024;SDS011;6073;53.230;10.444;2023-09-18T01:21:01;6.45;;;5.15;;
12024;SDS011;6073;53.230;10.444;2023-09-18T01:23:26;5.50;;;5.00;;
12024;SDS011;6073;53.230;10.444;2023-09-18T01:25:51;6.28;;;5.68;;
12024;SDS011;6073;53.230;10.444;2023-09-18T01:28:17;5.85;;;5.30;;
12024;SDS011;6073;53.230;10.444;2023-09-18T01:30:42;5.95;;;5.35;;
12024;SDS011;6073;53.230;10.444;2023-09-18T01:33:09;5.95;;;5.38;;
12024;SDS011;6073;53.230;10.444;2023-09-18T01:35:35;6.00;;;5.30;;
12024;SDS011;6073;53.230;10.444;2023-09-18T01:38:02;7.10;;;5.45;;
12024;SDS011;6073;53.230;10.444;2023-09-18T01:40:28;5.63;;;5.10;;
12024;SDS011;6073;53.230;10.444;2023-09-18T01:42:54;6.05;;;5.45;;
12024;SDS011;6073;53.230;10.444;2023-09-18T01:45:20;5.63;;;5.13;;
12024;SDS011;6073;53.230;10.444;2023-09-18T01:47:46;6.10;;;5.10;;
12024;SDS011;6073;53.230;10.444;2023-09-18T01:50:11;5.50;;;4.72;;
12024;SDS011;6073;53.230;10.444;2023-09-18T01:52:38;5.40;;;4.75;;
12024;SDS011;6073;53.230;10.444;2023-09-18T01:55:03;5.25;;;4.78;;
12024;SDS011;6073;53.230;10.444;2023-09-18T01:57:29;6.07;;;5.25;;
12024;SDS011;6073;53.230;10.444;2023-09-18T01:59:55;5.60;;;5.10;;
12024;SDS011;6073;53.230;10.444;2023-09-18T02:02:20;5.78;;;5.20;;
12024;SDS011;6073;53.230;10.444;2023-09-18T02:04:46;6.22;;;5.00;;
12024;SDS011;6073;53.230;10.444;2023-09-18T02:07:11;5.72;;;5.10;;
12024;SDS011;6073;53.230;10.444;2023-09-18T02:09:37;6.25;;;5.43;;
12024;SDS011;6073;53.230;10.444;2023-09-18T02:12:02;6.28;;;5.63;;
12024;SDS011;6073;53.230;10.444;2023-09-18T02:14:29;5.75;;;5.15;;
12024;SDS011;6073;53.230;10.444;2023-09-18T02:16:55;6.03;;;5.43;;
12024;SDS011;6073;53.230;10.444;2023-09-18T02:19:21;5.75;;;5.15;;
12024;SDS011;6073;53.230;10.444;2023-09-18T02:21:46;6.57;;;5.40;;
12024;SDS011;6073;53.230;10.444;2023-09-18T02:24:12;6.13;;;5.10;;
12024;SDS011;6073;53.230;10.444;2023-09-18T02:26:38;6.18;;;5.57;;
12024;SDS011;6073;53.230;10.444;2023-09-18T02:29:05;6.55;;;5.57;;
12024;SDS011;6073;53.230;10.444;2023-09-18T02:31:35;5.72;;;5.22;;
12024;SDS011;6073;53.230;10.444;2023-09-18T02:34:00;6.55;;;5.57;;
12024;SDS011;6073;53.230;10.444;2023-09-18T02:36:26;6.05;;;5.35;;
12024;SDS011;6073;53.230;10.444;2023-09-18T02:38:51;7.00;;;5.55;;
12024;SDS011;6073;53.230;10.444;2023-09-18T02:41:17;5.93;;;5.28;;
12024;SDS011;6073;53.230;10.444;2023-09-18T02:43:42;5.88;;;5.10;;
12024;SDS011;6073;53.230;10.444;2023-09-18T02:46:08;6.18;;;5.57;;
12024;SDS011;6073;53.230;10.444;2023-09-18T02:48:34;5.75;;;5.25;;
12024;SDS011;6073;53.230;10.444;2023-09-18T02:51:00;6.20;;;5.60;;
12024;SDS011;6073;53.230;10.444;2023-09-18T02:53:26;5.45;;;4.82;;
12024;SDS011;6073;53.230;10.444;2023-09-18T02:55:53;6.53;;;5.25;;
12024;SDS011;6073;53.230;10.444;2023-09-18T02:58:20;6.20;;;5.57;;
12024;SDS011;6073;53.230;10.444;2023-09-18T03:00:47;6.10;;;5.50;;
12024;SDS011;6073;53.230;10.444;2023-09-18T03:03:13;5.80;;;5.25;;
12024;SDS011;6073;53.230;10.444;2023-09-18T03:05:40;5.90;;;5.30;;
12024;SDS011;6073;53.230;10.444;2023-09-18T03:08:06;6.35;;;5.70;;
12024;SDS011;6073;53.230;10.444;2023-09-18T03:10:33;6.13;;;5.53;;
12024;SDS011;6073;53.230;10.444;2023-09-18T03:13:00;6.20;;;5.57;;
12024;SDS011;6073;53.230;10.444;2023-09-18T03:15:29;5.88;;;5.28;;
12024;SDS011;6073;53.230;10.444;2023-09-18T03:17:55;5.78;;;5.28;;
12024;SDS011;6073;53.230;10.444;2023-09-18T03:20:22;6.28;;;5.30;;
12024;SDS011;6073;53.230;10.444;2023-09-18T03:22:49;5.55;;;5.03;;
12024;SDS011;6073;53.230;10.444;2023-09-18T03:25:15;5.88;;;5.28;;
12024;SDS011;6073;53.230;10.444;2023-09-18T03:27:41;6.60;;;5.70;;
12024;SDS011;6073;53.230;10.444;2023-09-18T03:30:07;6.10;;;5.50;;
12024;SDS011;6073;53.230;10.444;2023-09-18T03:32:33;6.25;;;5.53;;
12024;SDS011;6073;53.230;10.444;2023-09-18T03:34:58;7.03;;;5.65;;
12024;SDS011;6073;53.230;10.444;2023-09-18T03:37:24;6.13;;;5.38;;
12024;SDS011;6073;53.230;10.444;2023-09-18T03:39:49;7.90;;;6.13;;
12024;SDS011;6073;53.230;10.444;2023-09-18T03:42:15;5.72;;;5.05;;
12024;SDS011;6073;53.230;10.444;2023-09-18T03:44:40;6.30;;;5.70;;
12024;SDS011;6073;53.230;10.444;2023-09-18T03:47:06;6.45;;;5.15;;
12024;SDS011;6073;53.230;10.444;2023-09-18T03:49:31;6.05;;;5.50;;
12024;SDS011;6073;53.230;10.444;2023-09-18T03:51:57;6.47;;;4.97;;
12024;SDS011;6073;53.230;10.444;2023-09-18T03:54:22;6.05;;;5.47;;
12024;SDS011;6073;53.230;10.444;2023-09-18T03:56:48;5.72;;;5.22;;
12024;SDS011;6073;53.230;10.444;2023-09-18T03:59:13;6.20;;;5.57;;
12024;SDS011;6073;53.230;10.444;2023-09-18T04:01:39;6.07;;;5.50;;
12024;SDS011;6073;53.230;10.444;2023-09-18T04:04:05;6.25;;;5.65;;
12024;SDS011;6073;53.230;10.444;2023-09-18T04:06:40;7.05;;;5.47;;
12024;SDS011;6073;53.230;10.444;2023-09-18T04:09:07;6.50;;;5.85;;
12024;SDS011;6073;53.230;10.444;2023-09-18T04:11:33;6.03;;;5.53;;
12024;SDS011;6073;53.230;10.444;2023-09-18T04:13:59;6.25;;;5.65;;
12024;SDS011;6073;53.230;10.444;2023-09-18T04:16:25;6.68;;;5.95;;
12024;SDS011;6073;53.230;10.444;2023-09-18T04:18:52;6.80;;;6.18;;
12024;SDS011;6073;53.230;10.444;2023-09-18T04:21:18;5.95;;;5.35;;
12024;SDS011;6073;53.230;10.444;2023-09-18T04:23:46;6.03;;;5.45;;
12024;SDS011;6073;53.230;10.444;2023-09-18T04:26:12;5.97;;;4.93;;
12024;SDS011;6073;53.230;10.444;2023-09-18T04:28:39;6.70;;;6.00;;
12024;SDS011;6073;53.230;10.444;2023-09-18T04:31:04;7.03;;;5.55;;
12024;SDS011;6073;53.230;10.444;2023-09-18T04:33:30;6.00;;;5.40;;
12024;SDS011;6073;53.230;10.444;2023-09-18T04:35:55;6.22;;;5.63;;
12024;SDS011;6073;53.230;10.444;2023-09-18T04:38:21;6.13;;;5.53;;
12024;SDS011;6073;53.230;10.444;2023-09-18T04:40:47;6.07;;;5.38;;
12024;SDS011;6073;53.230;10.444;2023-09-18T04:43:12;7.40;;;5.90;;
12024;SDS011;6073;53.230;10.444;2023-09-18T04:45:38;6.97;;;6.25;;
12024;SDS011;6073;53.230;10.444;2023-09-18T04:48:03;6.10;;;5.50;;
12024;SDS011;6073;53.230;10.444;2023-09-18T04:50:30;7.30;;;5.85;;
12024;SDS011;6073;53.230;10.444;2023-09-18T04:52:58;6.45;;;5.45;;
12024;SDS011;6073;53.230;10.444;2023-09-18T04:55:24;6.40;;;5.80;;
12024;SDS011;6073;53.230;10.444;2023-09-18T04:57:50;6.63;;;5.82;;
12024;SDS011;6073;53.230;10.444;2023-09-18T05:00:15;7.32;;;5.88;;
12024;SDS011;6073;53.230;10.444;2023-09-18T05:02:41;6.32;;;5.65;;
12024;SDS011;6073;53.230;10.444;2023-09-18T05:05:07;6.05;;;5.45;;
12024;SDS011;6073;53.230;10.444;2023-09-18T05:07:36;6.18;;;5.65;;
12024;SDS011;6073;53.230;10.444;2023-09-18T05:10:02;7.38;;;6.22;;
12024;SDS011;6073;53.230;10.444;2023-09-18T05:12:29;6.68;;;6.07;;
12024;SDS011;6073;53.230;10.444;2023-09-18T05:14:55;6.82;;;6.13;;
12024;SDS011;6073;53.230;10.444;2023-09-18T05:17:27;6.78;;;6.13;;
12024;SDS011;6073;53.230;10.444;2023-09-18T05:20:17;6.38;;;5.68;;
12024;SDS011;6073;53.230;10.444;2023-09-18T05:22:43;6.43;;;5.65;;
12024;SDS011;6073;53.230;10.444;2023-09-18T05:25:10;6.07;;;5.40;;
12024;SDS011;6073;53.230;10.444;2023-09-18T05:27:36;6.55;;;5.85;;
12024;SDS011;6073;53.230;10.444;2023-09-18T05:30:13;7.10;;;5.78;;
12024;SDS011;6073;53.230;10.444;2023-09-18T05:32:40;6.60;;;6.00;;
12024;SDS011;6073;53.230;10.444;2023-09-18T05:35:07;6.05;;;5.50;;
12024;SDS011;6073;53.230;10.444;2023-09-18T05:37:36;5.72;;;5.20;;
12024;SDS011;6073;53.230;10.444;2023-09-18T05:40:03;6.70;;;5.57;;
12024;SDS011;6073;53.230;10.444;2023-09-18T05:42:30;7.03;;;6.05;;
12024;SDS011;6073;53.230;10.444;2023-09-18T05:44:56;7.18;;;5.70;;
12024;SDS011;6073;53.230;10.444;2023-09-18T05:47:21;6.22;;;5.63;;
12024;SDS011;6073;53.230;10.444;2023-09-18T05:49:48;6.15;;;5.57;;
12024;SDS011;6073;53.230;10.444;2023-09-18T05:52:13;7.75;;;5.32;;
12024;SDS011;6073;53.230;10.444;2023-09-18T05:54:39;7.20;;;6.13;;
12024;SDS011;6073;53.230;10.444;2023-09-18T05:57:05;7.80;;;5.57;;
12024;SDS011;6073;53.230;10.444;2023-09-18T05:59:32;6.22;;;5.63;;
12024;SDS011;6073;53.230;10.444;2023-09-18T06:01:57;6.10;;;5.50;;
12024;SDS011;6073;53.230;10.444;2023-09-18T06:04:23;5.95;;;5.25;;
12024;SDS011;6073;53.230;10.444;2023-09-18T06:06:49;6.35;;;5.63;;
12024;SDS011;6073;53.230;10.444;2023-09-18T06:09:16;7.43;;;5.70;;
12024;SDS011;6073;53.230;10.444;2023-09-18T06:11:41;7.38;;;5.72;;
12024;SDS011;6073;53.230;10.444;2023-09-18T06:14:07;7.10;;;5.63;;
12024;SDS011;6073;53.230;10.444;2023-09-18T06:16:33;6.03;;;5.35;;
12024;SDS011;6073;53.230;10.444;2023-09-18T06:18:58;8.23;;;5.60;;
12024;SDS011;6073;53.230;10.444;2023-09-18T06:21:25;5.95;;;5.20;;
12024;SDS011;6073;53.230;10.444;2023-09-18T06:23:50;5.80;;;4.88;;
12024;SDS011;6073;53.230;10.444;2023-09-18T06:26:16;6.03;;;4.82;;
12024;SDS011;6073;53.230;10.444;2023-09-18T06:28:42;5.45;;;4.88;;
12024;SDS011;6073;53.230;10.444;2023-09-18T06:31:08;5.40;;;4.90;;
12024;SDS011;6073;53.230;10.444;2023-09-18T06:33:34;4.65;;;4.25;;
12024;SDS011;6073;53.230;10.444;2023-09-18T06:35:59;5.07;;;4.35;;
12024;SDS011;6073;53.230;10.444;2023-09-18T06:38:25;4.93;;;4.30;;
12024;SDS011;6073;53.230;10.444;2023-09-18T06:40:51;5.35;;;4.85;;
12024;SDS011;6073;53.230;10.444;2023-09-18T06:43:18;5.18;;;4.68;;
12024;SDS011;6073;53.230;10.444;2023-09-18T06:45:43;6.55;;;5.07;;
12024;SDS011;6073;53.230;10.444;2023-09-18T06:48:09;5.35;;;4.85;;
12024;SDS011;6073;53.230;10.444;2023-09-18T06:50:34;5.05;;;4.55;;
12024;SDS011;6073;53.230;10.444;2023-09-18T06:53:01;4.97;;;4.53;;
12024;SDS011;6073;53.230;10.444;2023-09-18T06:55:27;4.70;;;4.30;;
12024;SDS011;6073;53.230;10.444;2023-09-18T06:57:52;4.50;;;4.10;;
12024;SDS011;6073;53.230;10.444;2023-09-18T07:00:18;5.15;;;4.68;;
12024;SDS011;6073;53.230;10.444;2023-09-18T07:02:45;5.00;;;4.57;;
12024;SDS011;6073;53.230;10.444;2023-09-18T07:05:11;4.75;;;4.35;;
12024;SDS011;6073;53.230;10.444;2023-09-18T07:07:37;5.78;;;4.93;;
12024;SDS011;6073;53.230;10.444;2023-09-18T07:10:02;5.32;;;4.50;;
12024;SDS011;6073;53.230;10.444;2023-09-18T07:12:29;5.90;;;4.55;;
12024;SDS011;6073;53.230;10.444;2023-09-18T07:14:54;4.53;;;4.13;;
12024;SDS011;6073;53.230;10.444;2023-09-18T07:17:20;5.30;;;4.30;;
12024;SDS011;6073;53.230;10.444;2023-09-18T07:19:45;5.25;;;4.53;;
12024;SDS011;6073;53.230;10.444;2023-09-18T07:22:11;5.35;;;4.53;;
12024;SDS011;6073;53.230;10.444;2023-09-18T07:24:37;5.05;;;4.47;;
12024;SDS011;6073;53.230;10.444;2023-09-18T07:27:05;5.10;;;4.60;;
12024;SDS011;6073;53.230;10.444;2023-09-18T07:29:31;5.05;;;4.60;;
12024;SDS011;6073;53.230;10.444;2023-09-18T07:31:58;5.13;;;4.53;;
12024;SDS011;6073;53.230;10.444;2023-09-18T07:34:23;4.90;;;4.40;;
12024;SDS011;6073;53.230;10.444;2023-09-18T07:36:49;5.57;;;4.13;;
12024;SDS011;6073;53.230;10.444;2023-09-18T07:39:19;4.72;;;4.32;;
12024;SDS011;6073;53.230;10.444;2023-09-18T07:41:44;4.38;;;3.97;;
12024;SDS011;6073;53.230;10.444;2023-09-18T07:44:10;4.65;;;4.20;;
12024;SDS011;6073;53.230;10.444;2023-09-18T07:46:35;4.97;;;4.47;;
12024;SDS011;6073;53.230;10.444;2023-09-18T07:49:01;4.40;;;4.00;;
12024;SDS011;6073;53.230;10.444;2023-09-18T07:51:26;4.80;;;4.30;;
12024;SDS011;6073;53.230;10.444;2023-09-18T07:53:52;4.90;;;4.40;;
12024;SDS011;6073;53.230;10.444;2023-09-18T07:56:17;4.82;;;4.43;;
12024;SDS011;6073;53.230;10.444;2023-09-18T07:58:44;5.25;;;4.25;;
12024;SDS011;6073;53.230;10.444;2023-09-18T08:01:12;4.20;;;3.80;;
12024;SDS011;6073;53.230;10.444;2023-09-18T08:03:37;5.18;;;4.05;;
12024;SDS011;6073;53.230;10.444;2023-09-18T08:06:03;4.85;;;4.45;;
12024;SDS011;6073;53.230;10.444;2023-09-18T08:08:29;5.00;;;4.50;;
12024;SDS011;6073;53.230;10.444;2023-09-18T08:10:57;4.70;;;4.20;;
12024;SDS011;6073;53.230;10.444;2023-09-18T08:13:23;5.10;;;4.28;;
12024;SDS011;6073;53.230;10.444;2023-09-18T08:15:49;4.60;;;4.00;;
12024;SDS011;6073;53.230;10.444;2023-09-18T08:18:15;4.97;;;4.35;;
12024;SDS011;6073;53.230;10.444;2023-09-18T08:20:44;4.45;;;4.05;;
12024;SDS011;6073;53.230;10.444;2023-09-18T08:23:10;5.20;;;4.70;;
12024;SDS011;6073;53.230;10.444;2023-09-18T08:25:36;5.10;;;4.43;;
12024;SDS011;6073;53.230;10.444;2023-09-18T08:28:02;4.93;;;3.97;;
12024;SDS011;6073;53.230;10.444;2023-09-18T08:30:28;6.80;;;4.32;;
12024;SDS011;6073;53.230;10.444;2023-09-18T08:32:54;4.85;;;4.45;;
12024;SDS011;6073;53.230;10.444;2023-09-18T08:35:19;4.78;;;4.35;;
12024;SDS011;6073;53.230;10.444;2023-09-18T08:37:45;4.55;;;4.07;;
12024;SDS011;6073;53.230;10.444;2023-09-18T08:40:11;5.57;;;4.57;;
12024;SDS011;6073;53.230;10.444;2023-09-18T08:42:39;5.13;;;4.50;;
12024;SDS011;6073;53.230;10.444;2023-09-18T08:45:09;5.05;;;3.83;;
12024;SDS011;6073;53.230;10.444;2023-09-18T08:47:39;5.30;;;4.13;;
12024;SDS011;6073;53.230;10.444;2023-09-18T08:50:06;5.10;;;4.50;;
12024;SDS011;6073;53.230;10.444;2023-09-18T08:52:35;4.57;;;4.18;;
12024;SDS011;6073;53.230;10.444;2023-09-18T08:55:02;5.18;;;4.47;;
12024;SDS011;6073;53.230;10.444;2023-09-18T08:57:28;4.82;;;4.40;;
12024;SDS011;6073;53.230;10.444;2023-09-18T08:59:55;4.70;;;4.30;;
12024;SDS011;6073;53.230;10.444;2023-09-18T09:02:22;5.05;;;4.28;;
12024;SDS011;6073;53.230;10.444;2023-09-18T09:04:47;5.40;;;4.30;;
12024;SDS011;6073;53.230;10.444;2023-09-18T09:07:13;6.60;;;4.70;;
12024;SDS011;6073;53.230;10.444;2023-09-18T09:09:39;4.85;;;4.35;;
12024;SDS011;6073;53.230;10.444;2023-09-18T09:12:06;5.00;;;4.50;;
12024;SDS011;6073;53.230;10.444;2023-09-18T09:14:32;4.80;;;4.40;;
12024;SDS011;6073;53.230;10.444;2023-09-18T09:16:58;4.90;;;4.40;;
12024;SDS011;6073;53.230;10.444;2023-09-18T09:19:31;5.43;;;4.93;;
12024;SDS011;6073;53.230;10.444;2023-09-18T09:22:00;6.40;;;4.35;;
12024;SDS011;6073;53.230;10.444;2023-09-18T09:24:36;5.03;;;4.57;;
12024;SDS011;6073;53.230;10.444;2023-09-18T09:27:06;6.03;;;4.78;;
12024;SDS011;6073;53.230;10.444;2023-09-18T09:29:31;5.07;;;4.60;;
12024;SDS011;6073;53.230;10.444;2023-09-18T09:32:11;4.75;;;4.35;;
12024;SDS011;6073;53.230;10.444;2023-09-18T09:34:41;4.43;;;4.03;;
12024;SDS011;6073;53.230;10.444;2023-09-18T09:37:08;4.97;;;3.90;;
12024;SDS011;6073;53.230;10.444;2023-09-18T09:39:33;5.28;;;4.10;;
12024;SDS011;6073;53.230;10.444;2023-09-18T09:42:00;5.97;;;4.65;;
12024;SDS011;6073;53.230;10.444;2023-09-18T09:44:27;4.70;;;4.30;;
12024;SDS011;6073;53.230;10.444;2023-09-18T09:46:54;4.82;;;4.32;;
12024;SDS011;6073;53.230;10.444;2023-09-18T09:49:19;4.90;;;4.32;;
12024;SDS011;6073;53.230;10.444;2023-09-18T09:51:48;5.15;;;4.65;;
12024;SDS011;6073;53.230;10.444;2023-09-18T09:54:13;6.85;;;4.82;;
12024;SDS011;6073;53.230;10.444;2023-09-18T09:56:43;5.38;;;4.57;;
12024;SDS011;6073;53.230;10.444;2023-09-18T09:59:10;4.20;;;3.70;;
12024;SDS011;6073;53.230;10.444;2023-09-18T10:01:37;4.40;;;4.00;;
12024;SDS011;6073;53.230;10.444;2023-09-18T10:04:05;5.03;;;4.00;;
12024;SDS011;6073;53.230;10.444;2023-09-18T10:06:35;5.05;;;4.22;;
12024;SDS011;6073;53.230;10.444;2023-09-18T10:09:02;4.20;;;3.80;;
12024;SDS011;6073;53.230;10.444;2023-09-18T10:11:30;5.28;;;4.20;;
12024;SDS011;6073;53.230;10.444;2023-09-18T10:14:02;5.75;;;4.45;;
12024;SDS011;6073;53.230;10.444;2023-09-18T10:16:35;4.57;;;3.90;;
12024;SDS011;6073;53.230;10.444;2023-09-18T10:22:06;5.65;;;4.38;;
12024;SDS011;6073;53.230;10.444;2023-09-18T10:24:58;5.32;;;4.00;;
12024;SDS011;6073;53.230;10.444;2023-09-18T10:27:32;5.90;;;4.55;;
12024;SDS011;6073;53.230;10.444;2023-09-18T10:29:58;6.65;;;4.25;;
12024;SDS011;6073;53.230;10.444;2023-09-18T10:32:29;6.63;;;4.00;;
12024;SDS011;6073;53.230;10.444;2023-09-18T10:34:57;8.30;;;4.22;;
12024;SDS011;6073;53.230;10.444;2023-09-18T10:37:25;4.25;;;3.88;;
12024;SDS011;6073;53.230;10.444;2023-09-18T10:39:52;6.03;;;4.50;;
12024;SDS011;6073;53.230;10.444;2023-09-18T10:42:19;4.10;;;3.70;;
12024;SDS011;6073;53.230;10.444;2023-09-18T10:44:46;5.68;;;4.13;;
12024;SDS011;6073;53.230;10.444;2023-09-18T10:47:12;4.82;;;4.30;;
12024;SDS011;6073;53.230;10.444;2023-09-18T10:49:39;6.03;;;4.30;;
12024;SDS011;6073;53.230;10.444;2023-09-18T10:52:05;4.60;;;4.18;;
12024;SDS011;6073;53.230;10.444;2023-09-18T10:54:36;5.65;;;4.13;;
12024;SDS011;6073;53.230;10.444;2023-09-18T10:57:03;4.63;;;4.22;;
12024;SDS011;6073;53.230;10.444;2023-09-18T10:59:29;4.88;;;4.28;;
12024;SDS011;6073;53.230;10.444;2023-09-18T11:01:56;6.90;;;3.53;;
12024;SDS011;6073;53.230;10.444;2023-09-18T11:04:28;5.82;;;3.78;;
12024;SDS011;6073;53.230;10.444;2023-09-18T11:09:22;7.28;;;4.10;;
12024;SDS011;6073;53.230;10.444;2023-09-18T11:20:05;6.22;;;4.22;;
12024;SDS011;6073;53.230;10.444;2023-09-18T11:22:40;5.78;;;3.83;;
12024;SDS011;6073;53.230;10.444;2023-09-18T11:25:30;5.95;;;4.05;;
12024;SDS011;6073;53.230;10.444;2023-09-18T11:30:52;5.85;;;4.43;;
12024;SDS011;6073;53.230;10.444;2023-09-18T11:33:38;7.53;;;3.92;;
12024;SDS011;6073;53.230;10.444;2023-09-18T11:36:08;6.15;;;3.83;;
12024;SDS011;6073;53.230;10.444;2023-09-18T11:38:59;5.47;;;4.15;;
12024;SDS011;6073;53.230;10.444;2023-09-18T11:41:33;4.72;;;3.70;;
12024;SDS011;6073;53.230;10.444;2023-09-18T11:46:48;5.43;;;3.83;;
12024;SDS011;6073;53.230;10.444;2023-09-18T11:49:19;6.25;;;4.30;;
12024;SDS011;6073;53.230;10.444;2023-09-18T11:51:48;7.00;;;3.60;;
12024;SDS011;6073;53.230;10.444;2023-09-18T11:54:15;7.38;;;3.95;;
12024;SDS011;6073;53.230;10.444;2023-09-18T11:56:42;6.85;;;3.63;;
12024;SDS011;6073;53.230;10.444;2023-09-18T11:59:08;7.35;;;3.15;;
12024;SDS011;6073;53.230;10.444;2023-09-18T12:01:35;4.28;;;3.45;;
12024;SDS011;6073;53.230;10.444;2023-09-18T12:04:01;6.20;;;3.75;;
12024;SDS011;6073;53.230;10.444;2023-09-18T12:06:32;7.43;;;3.20;;
12024;SDS011;6073;53.230;10.444;2023-09-18T12:08:59;7.15;;;3.33;;
12024;SDS011;6073;53.230;10.444;2023-09-18T12:11:24;4.97;;;3.15;;
12024;SDS011;6073;53.230;10.444;2023-09-18T12:13:51;6.05;;;3.25;;
12024;SDS011;6073;53.230;10.444;2023-09-18T12:16:17;6.47;;;3.08;;
12024;SDS011;6073;53.230;10.444;2023-09-18T12:18:47;4.07;;;3.15;;
12024;SDS011;6073;53.230;10.444;2023-09-18T12:21:13;6.47;;;3.20;;
12024;SDS011;6073;53.230;10.444;2023-09-18T12:23:42;3.20;;;2.78;;
12024;SDS011;6073;53.230;10.444;2023-09-18T12:26:10;4.07;;;2.88;;
12024;SDS011;6073;53.230;10.444;2023-09-18T12:28:38;5.15;;;2.85;;
12024;SDS011;6073;53.230;10.444;2023-09-18T12:31:11;4.10;;;2.70;;
12024;SDS011;6073;53.230;10.444;2023-09-18T12:33:38;6.70;;;3.55;;
12024;SDS011;6073;53.230;10.444;2023-09-18T12:36:04;4.72;;;2.83;;
12024;SDS011;6073;53.230;10.444;2023-09-18T12:38:31;5.50;;;2.80;;
12024;SDS011;6073;53.230;10.444;2023-09-18T12:40:57;4.57;;;3.05;;
12024;SDS011;6073;53.230;10.444;2023-09-18T12:43:40;6.20;;;2.65;;
12024;SDS011;6073;53.230;10.444;2023-09-18T12:46:06;5.45;;;2.65;;
12024;SDS011;6073;53.230;10.444;2023-09-18T12:48:36;3.50;;;2.80;;
12024;SDS011;6073;53.230;10.444;2023-09-18T12:51:04;4.38;;;2.40;;
12024;SDS011;6073;53.230;10.444;2023-09-18T12:53:30;5.95;;;2.70;;
12024;SDS011;6073;53.230;10.444;2023-09-18T12:56:14;6.15;;;2.75;;
12024;SDS011;6073;53.230;10.444;2023-09-18T12:58:41;3.33;;;2.30;;
12024;SDS011;6073;53.230;10.444;2023-09-18T13:01:08;3.03;;;2.55;;
12024;SDS011;6073;53.230;10.444;2023-09-18T13:03:46;4.22;;;2.17;;
12024;SDS011;6073;53.230;10.444;2023-09-18T13:06:18;5.22;;;2.35;;
12024;SDS011;6073;53.230;10.444;2023-09-18T13:08:45;4.55;;;2.80;;
12024;SDS011;6073;53.230;10.444;2023-09-18T13:11:11;5.10;;;2.70;;
12024;SDS011;6073;53.230;10.444;2023-09-18T13:13:39;2.75;;;2.28;;
12024;SDS011;6073;53.230;10.444;2023-09-18T13:16:06;3.45;;;2.40;;
12024;SDS011;6073;53.230;10.444;2023-09-18T13:18:34;4.95;;;2.63;;
12024;SDS011;6073;53.230;10.444;2023-09-18T13:21:00;7.07;;;2.13;;
12024;SDS011;6073;53.230;10.444;2023-09-18T13:23:34;3.03;;;2.13;;
12024;SDS011;6073;53.230;10.444;2023-09-18T13:26:00;4.53;;;2.40;;
12024;SDS011;6073;53.230;10.444;2023-09-18T13:28:28;4.15;;;2.05;;
12024;SDS011;6073;53.230;10.444;2023-09-18T13:30:56;5.07;;;2.25;;
12024;SDS011;6073;53.230;10.444;2023-09-18T13:33:22;4.05;;;1.95;;
12024;SDS011;6073;53.230;10.444;2023-09-18T13:35:48;5.70;;;2.28;;
12024;SDS011;6073;53.230;10.444;2023-09-18T13:38:14;4.15;;;2.03;;
12024;SDS011;6073;53.230;10.444;2023-09-18T13:40:40;4.10;;;1.98;;
12024;SDS011;6073;53.230;10.444;2023-09-18T13:43:07;4.15;;;2.00;;
12024;SDS011;6073;53.230;10.444;2023-09-18T13:45:34;4.35;;;2.28;;
12024;SDS011;6073;53.230;10.444;2023-09-18T13:48:01;2.15;;;1.77;;
12024;SDS011;6073;53.230;10.444;2023-09-18T13:50:27;3.35;;;2.00;;
12024;SDS011;6073;53.230;10.444;2023-09-18T13:52:53;6.15;;;2.78;;
12024;SDS011;6073;53.230;10.444;2023-09-18T13:55:19;7.07;;;2.28;;
12024;SDS011;6073;53.230;10.444;2023-09-18T13:57:44;3.35;;;2.10;;
12024;SDS011;6073;53.230;10.444;2023-09-18T14:00:10;3.38;;;2.30;;
12024;SDS011;6073;53.230;10.444;2023-09-18T14:02:37;3.92;;;2.00;;
12024;SDS011;6073;53.230;10.444;2023-09-18T14:05:04;4.60;;;2.00;;
12024;SDS011;6073;53.230;10.444;2023-09-18T14:07:30;3.83;;;1.80;;
12024;SDS011;6073;53.230;10.444;2023-09-18T14:09:56;4.22;;;2.10;;
12024;SDS011;6073;53.230;10.444;2023-09-18T14:12:22;3.85;;;2.17;;
12024;SDS011;6073;53.230;10.444;2023-09-18T14:14:47;3.30;;;1.80;;
12024;SDS011;6073;53.230;10.444;2023-09-18T14:17:15;3.72;;;1.80;;
12024;SDS011;6073;53.230;10.444;2023-09-18T14:19:42;3.63;;;2.05;;
12024;SDS011;6073;53.230;10.444;2023-09-18T14:22:08;3.88;;;1.90;;
12024;SDS011;6073;53.230;10.444;2023-09-18T14:24:35;4.18;;;1.85;;
12024;SDS011;6073;53.230;10.444;2023-09-18T14:27:01;2.50;;;1.65;;
12024;SDS011;6073;53.230;10.444;2023-09-18T14:29:27;4.15;;;2.08;;
12024;SDS011;6073;53.230;10.444;2023-09-18T14:31:55;2.05;;;1.80;;
12024;SDS011;6073;53.230;10.444;2023-09-18T14:34:21;5.07;;;2.33;;
12024;SDS011;6073;53.230;10.444;2023-09-18T14:36:46;4.22;;;2.33;;
12024;SDS011;6073;53.230;10.444;2023-09-18T14:39:12;3.17;;;1.90;;
12024;SDS011;6073;53.230;10.444;2023-09-18T14:41:38;3.33;;;2.28;;
12024;SDS011;6073;53.230;10.444;2023-09-18T14:44:04;6.03;;;2.58;;
12024;SDS011;6073;53.230;10.444;2023-09-18T14:46:31;6.38;;;3.15;;
12024;SDS011;6073;53.230;10.444;2023-09-18T14:49:00;3.88;;;2.40;;
12024;SDS011;6073;53.230;10.444;2023-09-18T14:51:29;3.70;;;1.80;;
12024;SDS011;6073;53.230;10.444;2023-09-18T14:53:55;3.97;;;2.20;;
12024;SDS011;6073;53.230;10.444;2023-09-18T14:56:22;4.93;;;2.45;;
12024;SDS011;6073;53.230;10.444;2023-09-18T14:58:47;4.75;;;2.33;;
12024;SDS011;6073;53.230;10.444;2023-09-18T15:01:13;3.40;;;2.28;;
12024;SDS011;6073;53.230;10.444;2023-09-18T15:03:39;3.75;;;2.53;;
12024;SDS011;6073;53.230;10.444;2023-09-18T15:06:05;3.13;;;2.38;;
12024;SDS011;6073;53.230;10.444;2023-09-18T15:08:32;2.83;;;2.20;;